Aeroporto :
LOGIN :

Iscrizione | Disclaimer

   EN    FR    IT 

 










Sommario :    VFR   VFR Marginale   IFR   IFR Intensivo   IFR Molto Intensivo
Visibilità : 
Base nubi : 
>= 8 km
>= 3000ft
5 / 8 km
1000 / 3000 ft
1500m / 5 km
500 / 1000 ft
800 / 1500m
200 / 500 ft
< 800m
< 200 ft
Simboli :   Temporali  Nebbia  Neve Forte  Precipitazioni Forti  Vento > 20 kt
SIGMETs :   Varie  Temporali  Ghiacco  Turbolenza  Onda orograficha  Ceneri Vulcaniche






- Altitudine del aeroporto : 814 ft
- Codice IATA : TLM


DAON - Zenata - Tlemcen

ULTIMO METAR :
  • 221200Z 21010KT 9999 SCT026 BKN100 18/12 Q1008

METARs OBSOLETI :
  • 221130Z 20006KT 9999 SCT026 BKN100 18/11 Q1009
  • 221100Z 20006KT 9999 SCT026 BKN100 16/11 Q1009
  • 221030Z 22012KT 9999 SCT026 BKN100 16/11 Q1009
  • 221000Z 22012KT 9999 SCT026 SCT100 17/10 Q1010
  • 220930Z 21010KT 9999 SCT026 SCT100 16/10 Q1010

TAF TAF DAON
Valido dal 22 a 12 ore il 23 a 12 ore UTC


221100Z 2212/2312 20006KT 9999 SCT026 BKN100
BECMG 2215/2218 23020G30KT
PROB30
TEMPO 2300/2309 5000 -TSRA FEW030CB



MetMap, La meteo Aeronautica in un colpo d'occhio ! - Copyright ORBIFLY Dicembre 2007 - Disclaimer

ORBIFLY MET'MAP TEAM :

Programmazione e sviluppo : Alexandra Zaïnal
Concezione e sviluppo : Baudouin d'Aumeries
Co-Programmazione e sviluppo : Marc-Olivier Méhu
Supporto tecnico e logistico : Manuel Goepfert
Aiuto per la traduzione : Arnaldo La Scala

Contatto : metmap@orbifly.com




FONTI E CREDITI :

   NOAA